Time;durP1;ratioP1;P1;durP2;ratioP2;P2;SDS_P1;SDS_P2;PMS_P1;PMS_P2;Temp;Humidity;BMP_temperature;BMP_pressure;BME280_temperature;BME280_humidity;BME280_pressure;Samples;Min_cycle;Max_cycle;Signal;HPM_P1;HPM_P2
2021/05/18 00:01:11;;;;;;;1.03;0.50;;;10.80;99.90;;;;;;5070428;28;20442;-56
2021/05/18 00:03:39;;;;;;;0.70;0.60;;;10.80;99.90;;;;;;5071785;28;20454;-56
2021/05/18 00:06:05;;;;;;;1.10;0.70;;;10.70;99.90;;;;;;5070839;28;20471;-56
2021/05/18 00:08:34;;;;;;;1.47;0.70;;;10.60;99.90;;;;;;5070775;28;20508;-56
2021/05/18 00:13:54;;;;;;;1.53;0.50;;;11.00;99.90;;;;;;5071176;28;20461;-56
2021/05/18 00:16:20;;;;;;;0.80;0.53;;;10.90;99.90;;;;;;5057136;28;20558;-56
2021/05/18 00:18:47;;;;;;;3.63;0.50;;;11.00;99.90;;;;;;5071065;28;20844;-56
2021/05/18 00:21:14;;;;;;;0.83;0.70;;;10.90;99.90;;;;;;5072750;28;20455;-56
2021/05/18 00:23:41;;;;;;;1.43;0.63;;;10.90;99.90;;;;;;5074444;28;20451;-56
2021/05/18 00:26:08;;;;;;;0.70;0.60;;;10.90;99.90;;;;;;5074259;28;20852;-56
2021/05/18 00:28:35;;;;;;;0.73;0.70;;;10.90;99.90;;;;;;5074328;28;20455;-56
2021/05/18 00:31:03;;;;;;;0.70;0.60;;;10.90;99.90;;;;;;5074129;28;20450;-56
2021/05/18 00:33:30;;;;;;;1.47;0.83;;;11.00;99.90;;;;;;5074882;28;21004;-56
2021/05/18 00:35:57;;;;;;;0.93;0.83;;;10.90;99.90;;;;;;5074428;28;20514;-56
2021/05/18 00:38:23;;;;;;;0.70;0.60;;;10.70;99.90;;;;;;5075069;28;21091;-56
2021/05/18 00:40:51;;;;;;;2.07;0.70;;;10.70;99.90;;;;;;5074802;28;20478;-56
2021/05/18 00:43:18;;;;;;;2.00;1.00;;;10.60;99.90;;;;;;5074909;28;20454;-57
2021/05/18 00:45:47;;;;;;;1.47;0.70;;;10.70;99.90;;;;;;5074287;28;20489;-56
2021/05/18 00:48:15;;;;;;;1.33;0.67;;;10.90;99.90;;;;;;5074841;28;20450;-56
2021/05/18 00:50:46;;;;;;;0.73;0.73;;;10.90;99.90;;;;;;5074347;28;20451;-57
2021/05/18 00:53:13;;;;;;;1.10;0.97;;;10.70;99.90;;;;;;5074775;28;20488;-56
2021/05/18 00:55:41;;;;;;;1.27;1.17;;;10.60;99.90;;;;;;5074139;28;20482;-57
2021/05/18 00:58:29;;;;;;;1.73;1.00;;;10.60;99.90;;;;;;5074224;28;20463;-56
2021/05/18 01:00:57;;;;;;;1.00;0.90;;;10.40;99.90;;;;;;5074386;28;20454;-56
2021/05/18 01:03:25;;;;;;;3.83;1.03;;;10.40;99.90;;;;;;5074788;28;20446;-56
2021/05/18 01:08:36;;;;;;;1.80;1.40;;;10.50;99.90;;;;;;5074523;28;20422;-56
2021/05/18 01:11:03;;;;;;;2.80;1.30;;;10.60;99.90;;;;;;5074111;28;20463;-56
2021/05/18 01:13:31;;;;;;;1.50;1.40;;;10.50;99.90;;;;;;5074061;28;20472;-56
2021/05/18 01:15:58;;;;;;;1.10;1.00;;;10.40;99.90;;;;;;5074127;28;20543;-56
2021/05/18 01:18:25;;;;;;;3.17;1.37;;;10.50;99.90;;;;;;5074300;28;20450;-56
2021/05/18 01:20:57;;;;;;;1.37;1.10;;;10.50;99.90;;;;;;5073602;28;20450;-56
2021/05/18 01:23:24;;;;;;;2.00;1.23;;;10.40;99.90;;;;;;5074231;28;20993;-56
2021/05/18 01:25:51;;;;;;;2.23;1.10;;;10.30;99.90;;;;;;5073578;28;20493;-55
2021/05/18 01:28:18;;;;;;;1.87;1.10;;;10.40;99.90;;;;;;5074339;28;20458;-56
2021/05/18 01:30:45;;;;;;;1.00;0.80;;;10.50;99.90;;;;;;5073946;28;20447;-55
2021/05/18 01:33:12;;;;;;;1.10;1.00;;;10.50;99.90;;;;;;5073171;28;20512;-57
2021/05/18 01:35:39;;;;;;;2.30;1.00;;;10.40;99.90;;;;;;5064957;28;20486;-57
2021/05/18 01:38:09;;;;;;;1.40;0.90;;;10.40;99.90;;;;;;5054125;28;20440;-56
2021/05/18 01:43:21;;;;;;;0.93;0.83;;;10.50;99.90;;;;;;5073903;28;20530;-56
2021/05/18 01:45:47;;;;;;;1.00;0.90;;;10.60;99.90;;;;;;5073261;28;20466;-56
2021/05/18 01:48:16;;;;;;;1.03;1.00;;;10.50;99.90;;;;;;5073116;28;20451;-56
2021/05/18 01:50:45;;;;;;;1.33;0.80;;;10.60;99.90;;;;;;5062123;28;20487;-56
2021/05/18 01:53:14;;;;;;;1.77;0.80;;;10.70;99.90;;;;;;5053476;28;20509;-56
2021/05/18 01:55:44;;;;;;;3.90;1.00;;;10.70;99.90;;;;;;5060794;28;20479;-56
2021/05/18 01:58:11;;;;;;;0.87;0.80;;;10.70;99.90;;;;;;5072710;28;20455;-56
2021/05/18 02:00:41;;;;;;;1.57;0.70;;;10.60;99.90;;;;;;5073486;28;20458;-56
2021/05/18 02:03:07;;;;;;;1.10;0.90;;;10.60;99.90;;;;;;5072221;28;20447;-56
2021/05/18 02:05:36;;;;;;;1.93;0.80;;;10.70;99.90;;;;;;5072837;28;21054;-56
2021/05/18 02:08:04;;;;;;;1.93;0.83;;;10.70;99.90;;;;;;5072080;28;20455;-56
2021/05/18 02:10:32;;;;;;;0.70;0.70;;;10.70;99.90;;;;;;5073076;28;20447;-56
2021/05/18 02:12:59;;;;;;;1.97;0.73;;;10.60;99.90;;;;;;5056725;28;20443;-56
2021/05/18 02:15:38;;;;;;;1.10;0.93;;;10.60;99.90;;;;;;5072881;28;20478;-56
2021/05/18 02:18:24;;;;;;;1.23;0.70;;;10.60;99.90;;;;;;5073029;28;20497;-56
2021/05/18 02:20:54;;;;;;;0.80;0.47;;;10.50;99.90;;;;;;5073429;28;20822;-56
2021/05/18 02:26:06;;;;;;;1.23;0.60;;;10.40;99.90;;;;;;5072361;28;20488;-56
2021/05/18 02:28:33;;;;;;;1.43;0.50;;;10.50;99.90;;;;;;5072973;28;20974;-56
2021/05/18 02:30:59;;;;;;;0.70;0.60;;;10.60;99.90;;;;;;5073001;28;20463;-56
2021/05/18 02:33:26;;;;;;;0.60;0.60;;;10.60;99.90;;;;;;5072603;28;20455;-56
2021/05/18 02:35:52;;;;;;;1.83;0.70;;;10.50;99.90;;;;;;5072488;28;20509;-56
2021/05/18 02:38:18;;;;;;;0.70;0.60;;;10.40;99.90;;;;;;5073116;28;20881;-56
2021/05/18 02:40:45;;;;;;;1.20;0.80;;;10.40;99.90;;;;;;5072646;28;20454;-56
2021/05/18 02:43:16;;;;;;;1.20;1.10;;;10.50;99.90;;;;;;5072859;28;20459;-56
2021/05/18 02:45:52;;;;;;;1.10;1.00;;;10.60;99.90;;;;;;5072363;28;20849;-56
2021/05/18 02:51:04;;;;;;;1.47;1.10;;;10.50;99.90;;;;;;5072878;28;20417;-56
2021/05/18 02:53:30;;;;;;;1.30;1.20;;;10.50;99.90;;;;;;5071815;28;20450;-56
2021/05/18 02:56:01;;;;;;;1.20;1.10;;;10.60;99.90;;;;;;5072137;28;20517;-56
2021/05/18 02:58:31;;;;;;;1.40;1.30;;;10.40;99.90;;;;;;5072802;28;20454;-56
2021/05/18 03:00:57;;;;;;;1.37;1.20;;;10.30;99.90;;;;;;5072449;28;20451;-56
2021/05/18 03:03:24;;;;;;;1.43;1.33;;;10.40;99.90;;;;;;5072067;28;20948;-56
2021/05/18 03:05:50;;;;;;;1.20;1.10;;;10.30;99.90;;;;;;5072186;28;20463;-56
2021/05/18 03:08:18;;;;;;;6.33;1.57;;;10.40;99.90;;;;;;5071917;28;20447;-56
2021/05/18 03:10:45;;;;;;;1.53;1.37;;;10.30;99.90;;;;;;5072539;28;20534;-56
2021/05/18 03:13:12;;;;;;;1.30;1.10;;;10.30;99.90;;;;;;5071994;28;20485;-56
2021/05/18 03:15:39;;;;;;;1.00;0.90;;;10.30;99.90;;;;;;5071670;28;20532;-56
2021/05/18 03:18:06;;;;;;;1.40;1.20;;;10.20;99.90;;;;;;5072163;28;20451;-56
2021/05/18 03:20:32;;;;;;;1.40;1.30;;;10.10;99.90;;;;;;5072067;28;20447;-56
2021/05/18 03:22:59;;;;;;;1.27;1.17;;;10.10;99.90;;;;;;5071728;28;20466;-56
2021/05/18 03:25:25;;;;;;;1.60;1.30;;;10.00;99.90;;;;;;5071714;28;20467;-56
2021/05/18 03:27:53;;;;;;;1.20;0.90;;;10.00;99.90;;;;;;5072061;28;20450;-56
2021/05/18 03:30:38;;;;;;;3.33;0.97;;;10.10;99.90;;;;;;5071984;28;20450;-56
2021/05/18 03:35:50;;;;;;;1.50;1.30;;;10.10;99.90;;;;;;5070950;28;20485;-56
2021/05/18 03:38:19;;;;;;;1.20;0.90;;;10.10;99.90;;;;;;5072080;28;20963;-56
2021/05/18 03:40:51;;;;;;;1.17;0.80;;;10.10;99.90;;;;;;5072087;28;20450;-56
2021/05/18 03:43:34;;;;;;;3.90;1.10;;;10.10;99.90;;;;;;5072015;28;20454;-56
2021/05/18 03:48:57;;;;;;;1.07;0.93;;;10.20;99.90;;;;;;5061484;28;20439;-55
2021/05/18 03:54:16;;;;;;;1.10;0.80;;;10.20;99.90;;;;;;5056443;28;21032;-56
2021/05/18 04:05:00;;;;;;;2.20;0.87;;;10.30;99.90;;;;;;5063485;28;20563;-51
2021/05/18 04:10:19;;;;;;;1.77;1.00;;;10.40;99.90;;;;;;5071551;28;20535;-51
2021/05/18 04:12:48;;;;;;;0.97;0.87;;;10.40;99.90;;;;;;5071068;28;20960;-51
2021/05/18 04:18:10;;;;;;;1.27;1.17;;;10.50;99.90;;;;;;5037610;28;20995;-51
2021/05/18 04:20:49;;;;;;;1.03;1.00;;;10.40;99.90;;;;;;5066163;28;20948;-50
2021/05/18 04:23:33;;;;;;;1.70;1.10;;;10.40;99.90;;;;;;5071199;28;20966;-50
2021/05/18 04:43:22;;;;;;;2.00;1.30;;;10.20;99.90;;;;;;5009206;28;20440;-50
2021/05/18 04:51:30;;;;;;;2.20;1.47;;;10.20;99.90;;;;;;5067406;28;20999;-51
2021/05/18 04:59:49;;;;;;;2.80;1.70;;;10.30;99.90;;;;;;5009199;28;20429;-48
2021/05/18 05:02:47;;;;;;;1.90;1.80;;;10.20;99.90;;;;;;5038627;28;20484;-49
2021/05/18 05:08:02;;;;;;;2.73;1.60;;;10.20;99.90;;;;;;5071688;28;20978;-49
2021/05/18 05:15:58;;;;;;;1.53;1.43;;;10.40;99.90;;;;;;5054401;28;20498;-48
2021/05/18 05:18:25;;;;;;;2.23;1.60;;;10.40;99.90;;;;;;5054341;28;20486;-48
2021/05/18 05:20:51;;;;;;;2.73;1.63;;;10.50;99.90;;;;;;5054352;28;20960;-49
2021/05/18 05:23:18;;;;;;;1.50;1.23;;;10.50;99.90;;;;;;5060569;28;20447;-49
2021/05/18 05:25:45;;;;;;;1.80;1.70;;;10.60;99.90;;;;;;5073650;28;20446;-49
2021/05/18 05:28:12;;;;;;;1.97;1.83;;;10.60;99.90;;;;;;5074035;28;20497;-49
2021/05/18 05:30:38;;;;;;;2.67;1.67;;;10.60;99.90;;;;;;5074020;28;20959;-49
2021/05/18 05:33:05;;;;;;;1.83;1.50;;;10.70;99.90;;;;;;5073056;28;20830;-49
2021/05/18 05:35:32;;;;;;;1.37;1.27;;;10.60;99.90;;;;;;5062208;28;20983;-49
2021/05/18 05:37:58;;;;;;;1.70;1.60;;;10.70;99.90;;;;;;5073931;28;20470;-49
2021/05/18 05:40:25;;;;;;;2.00;1.90;;;10.70;99.90;;;;;;5073942;28;20443;-49
2021/05/18 05:42:52;;;;;;;2.40;1.47;;;10.70;99.90;;;;;;5073578;28;20469;-49
2021/05/18 05:45:19;;;;;;;1.63;1.53;;;10.80;99.90;;;;;;5060862;28;20451;-49
2021/05/18 05:47:46;;;;;;;1.73;1.33;;;10.90;99.90;;;;;;5067497;28;20471;-49
2021/05/18 05:50:12;;;;;;;1.50;1.40;;;10.90;99.90;;;;;;5053796;28;20526;-49
2021/05/18 05:52:39;;;;;;;6.13;1.60;;;10.90;99.90;;;;;;5066725;28;20458;-49
2021/05/18 05:55:08;;;;;;;1.57;1.47;;;11.00;99.90;;;;;;5057722;28;20478;-49
2021/05/18 05:57:35;;;;;;;3.87;1.37;;;11.10;99.90;;;;;;5073413;28;20524;-48
2021/05/18 06:00:05;;;;;;;2.53;1.70;;;11.10;99.90;;;;;;5073759;28;20592;-49
2021/05/18 06:02:32;;;;;;;1.60;1.50;;;11.10;99.90;;;;;;5073705;28;20486;-49
2021/05/18 06:04:58;;;;;;;2.43;1.63;;;11.10;99.90;;;;;;5072903;28;21010;-49
2021/05/18 06:07:24;;;;;;;1.90;1.70;;;11.20;99.90;;;;;;5068341;28;20467;-49
2021/05/18 06:09:58;;;;;;;4.00;1.70;;;11.20;99.90;;;;;;5073047;28;20450;-49
2021/05/18 06:12:41;;;;;;;2.97;2.00;;;11.20;99.90;;;;;;5073139;28;20504;-48
2021/05/18 06:15:29;;;;;;;3.17;1.63;;;11.30;99.90;;;;;;5065679;28;20479;-49
2021/05/18 06:34:50;;;;;;;2.30;2.10;;;11.30;99.90;;;;;;5072883;28;20865;-49
2021/05/18 06:42:47;;;;;;;2.30;2.07;;;11.40;99.90;;;;;;5053091;28;20423;-49
2021/05/18 06:47:59;;;;;;;2.00;1.80;;;11.90;99.90;;;;;;5072656;28;20469;-49
2021/05/18 06:50:32;;;;;;;6.60;1.97;;;12.00;99.90;;;;;;5072730;28;20434;-49
2021/05/18 06:53:00;;;;;;;6.07;1.97;;;11.90;99.90;;;;;;5072371;28;20486;-49
2021/05/18 06:55:29;;;;;;;1.97;1.80;;;12.00;99.90;;;;;;5072028;28;20902;-49
2021/05/18 06:58:01;;;;;;;3.50;2.00;;;12.20;99.90;;;;;;5072490;28;20913;-49
2021/05/18 07:00:28;;;;;;;3.10;1.70;;;12.30;99.90;;;;;;5072403;28;20461;-50
2021/05/18 07:02:57;;;;;;;1.97;1.73;;;12.40;99.90;;;;;;5072348;28;20447;-49
2021/05/18 07:05:32;;;;;;;2.00;1.90;;;12.50;99.90;;;;;;5071745;28;20862;-49
2021/05/18 07:08:07;;;;;;;7.30;1.90;;;12.80;99.90;;;;;;5072364;28;20462;-49
2021/05/18 07:10:34;;;;;;;1.70;1.60;;;12.80;99.90;;;;;;5072497;28;20534;-49
2021/05/18 07:13:00;;;;;;;1.60;1.50;;;12.90;99.90;;;;;;5072307;28;20446;-49
2021/05/18 07:15:28;;;;;;;1.63;1.53;;;13.00;99.90;;;;;;5071326;28;20482;-49
2021/05/18 07:17:54;;;;;;;2.87;1.90;;;13.10;99.90;;;;;;5072119;28;20470;-49
2021/05/18 07:20:21;;;;;;;2.10;1.60;;;12.90;99.90;;;;;;5071505;28;21017;-50
2021/05/18 07:22:51;;;;;;;2.13;1.77;;;12.90;99.90;;;;;;5071823;28;20476;-49
2021/05/18 07:25:18;;;;;;;2.77;2.00;;;12.70;99.90;;;;;;5070920;28;20454;-49
2021/05/18 07:27:44;;;;;;;1.50;1.40;;;12.60;99.90;;;;;;5071865;28;20585;-50
2021/05/18 07:30:12;;;;;;;4.80;1.80;;;12.70;99.90;;;;;;5071650;28;20454;-49
2021/05/18 07:32:39;;;;;;;1.50;1.40;;;12.70;99.90;;;;;;5071758;28;20506;-49
2021/05/18 07:35:07;;;;;;;1.50;1.30;;;12.70;99.90;;;;;;5071462;28;20474;-50
2021/05/18 07:37:34;;;;;;;2.40;1.30;;;13.00;99.90;;;;;;5065348;28;20488;-48
2021/05/18 07:40:05;;;;;;;1.67;1.57;;;13.30;99.90;;;;;;5074066;28;20443;-49
2021/05/18 07:42:32;;;;;;;1.50;1.40;;;13.70;99.90;;;;;;5077841;28;20461;-49
2021/05/18 07:45:00;;;;;;;1.30;1.20;;;13.60;99.90;;;;;;5075565;28;20442;-49
2021/05/18 07:47:30;;;;;;;1.50;1.30;;;13.70;99.90;;;;;;5067344;28;20561;-49
2021/05/18 07:50:01;;;;;;;1.97;1.80;;;13.60;99.90;;;;;;5059995;28;20972;-49
2021/05/18 08:00:53;;;;;;;1.67;0.83;;;13.80;99.90;;;;;;5051615;28;20625;-50
2021/05/18 08:06:04;;;;;;;2.37;0.90;;;14.30;99.90;;;;;;5058017;28;20430;-48
2021/05/18 08:08:31;;;;;;;0.93;0.83;;;14.40;99.90;;;;;;5071060;28;20458;-49
2021/05/18 08:11:01;;;;;;;1.00;0.90;;;14.50;99.90;;;;;;5067241;28;20459;-49
2021/05/18 08:13:28;;;;;;;2.13;0.90;;;14.60;99.90;;;;;;5071237;28;20455;-48
2021/05/18 08:19:18;;;;;;;3.33;0.60;;;14.40;99.90;;;;;;5065040;28;20657;-50
2021/05/18 10:35:59;;;;;;;1.27;0.40;;;14.40;99.90;;;;;;5022177;28;20472;-54
2021/05/18 10:38:28;;;;;;;0.50;0.40;;;14.50;99.90;;;;;;5031387;28;20473;-54
2021/05/18 10:41:10;;;;;;;0.83;0.43;;;14.60;99.90;;;;;;5032689;28;20448;-54
2021/05/18 10:43:37;;;;;;;0.50;0.50;;;14.30;99.90;;;;;;5032830;28;20440;-54
2021/05/18 10:46:12;;;;;;;0.50;0.40;;;14.00;99.90;;;;;;5032424;28;20453;-54
2021/05/18 10:48:59;;;;;;;0.60;0.60;;;13.70;99.90;;;;;;5032597;28;20468;-54
2021/05/18 10:51:35;;;;;;;0.60;0.50;;;13.50;99.90;;;;;;5026703;28;20833;-54
2021/05/18 10:54:20;;;;;;;1.57;0.57;;;13.20;99.90;;;;;;5032504;28;20453;-53
2021/05/18 10:57:10;;;;;;;0.80;0.50;;;12.90;99.90;;;;;;5031687;28;20499;-54
2021/05/18 10:59:41;;;;;;;1.03;0.80;;;13.00;99.90;;;;;;5012747;28;20456;-54
2021/05/18 11:02:10;;;;;;;0.70;0.50;;;13.10;99.90;;;;;;5013159;28;20993;-54
2021/05/18 11:04:41;;;;;;;1.23;0.77;;;13.10;99.90;;;;;;5012380;28;20533;-54
2021/05/18 11:07:09;;;;;;;0.73;0.63;;;13.20;99.90;;;;;;5011926;28;20466;-54
2021/05/18 11:09:40;;;;;;;1.33;1.23;;;13.10;99.90;;;;;;5013093;28;20453;-54
2021/05/18 11:12:10;;;;;;;8.50;4.90;;;13.20;99.90;;;;;;5032024;28;20453;-54
2021/05/18 11:14:52;;;;;;;3.47;1.50;;;13.30;99.90;;;;;;5032674;28;20591;-54
2021/05/18 11:17:21;;;;;;;0.60;0.60;;;13.40;99.90;;;;;;5032161;28;20464;-55
2021/05/18 11:20:05;;;;;;;1.50;1.00;;;13.60;99.90;;;;;;5031938;28;20532;-54
2021/05/18 11:25:36;;;;;;;0.60;0.60;;;13.10;99.90;;;;;;5027583;28;20440;-54
2021/05/18 11:28:24;;;;;;;1.73;0.80;;;13.30;99.90;;;;;;5031988;28;20474;-54
2021/05/18 11:30:54;;;;;;;0.63;0.60;;;13.30;99.90;;;;;;5028409;28;20456;-54
2021/05/18 11:33:27;;;;;;;0.70;0.60;;;13.30;99.90;;;;;;5032132;28;20456;-55
2021/05/18 11:36:03;;;;;;;0.80;0.70;;;13.60;99.90;;;;;;5031754;28;20488;-55
2021/05/18 11:38:29;;;;;;;1.83;0.57;;;13.50;99.90;;;;;;5031855;28;20982;-54
2021/05/18 11:40:56;;;;;;;0.60;0.50;;;13.70;99.90;;;;;;5038890;28;20458;-55
2021/05/18 11:43:24;;;;;;;0.97;0.50;;;14.00;99.90;;;;;;5048326;28;20468;-54
2021/05/18 11:46:01;;;;;;;0.70;0.50;;;14.30;99.90;;;;;;5031707;28;20491;-54
2021/05/18 11:48:28;;;;;;;1.00;0.50;;;14.50;99.90;;;;;;5031635;28;20468;-55
2021/05/18 11:51:06;;;;;;;1.43;0.60;;;14.80;99.90;;;;;;5030775;28;20452;-55
2021/05/18 11:53:36;;;;;;;0.60;0.50;;;15.00;99.90;;;;;;5031910;28;20527;-55
2021/05/18 11:56:16;;;;;;;0.80;0.50;;;15.30;99.90;;;;;;5031384;28;20477;-55
2021/05/18 11:58:43;;;;;;;1.70;0.40;;;15.50;99.90;;;;;;5030593;28;20534;-55
2021/05/18 12:01:11;;;;;;;2.70;1.43;;;15.50;99.90;;;;;;5031490;28;20803;-54
2021/05/18 12:03:37;;;;;;;2.37;0.60;;;15.60;99.90;;;;;;5030992;28;20457;-55
2021/05/18 12:06:06;;;;;;;1.80;0.50;;;15.70;99.90;;;;;;5031014;28;20826;-55
2021/05/18 12:08:35;;;;;;;1.23;0.57;;;15.70;99.90;;;;;;5030843;28;20495;-55
2021/05/18 12:11:12;;;;;;;0.50;0.50;;;15.80;99.90;;;;;;5031393;28;20934;-55
2021/05/18 12:13:40;;;;;;;4.73;0.70;;;16.00;99.90;;;;;;5031445;28;20445;-55
2021/05/18 12:16:08;;;;;;;2.63;1.00;;;16.00;99.90;;;;;;5031184;28;20496;-55
2021/05/18 12:18:37;;;;;;;1.83;0.50;;;16.00;99.90;;;;;;5034962;28;20475;-54
2021/05/18 12:21:06;;;;;;;0.60;0.57;;;16.00;99.90;;;;;;5035626;28;20487;-55
2021/05/18 12:23:34;;;;;;;0.60;0.50;;;15.90;99.90;;;;;;5035757;28;20449;-55
2021/05/18 12:26:11;;;;;;;1.67;0.57;;;15.70;99.90;;;;;;5035065;28;20440;-55
2021/05/18 12:28:38;;;;;;;0.63;0.60;;;16.10;99.90;;;;;;5034613;28;20471;-55
2021/05/18 12:31:07;;;;;;;0.90;0.60;;;15.90;99.90;;;;;;5034848;28;20510;-55
2021/05/18 12:33:36;;;;;;;2.10;0.90;;;16.00;99.90;;;;;;5035390;28;20535;-55
2021/05/18 12:36:04;;;;;;;1.10;0.60;;;16.30;99.90;;;;;;5034849;28;20489;-55
2021/05/18 12:38:31;;;;;;;0.97;0.60;;;16.50;99.90;;;;;;5034958;28;20464;-55
2021/05/18 12:41:03;;;;;;;0.60;0.60;;;16.70;99.90;;;;;;5035029;28;20444;-54
2021/05/18 12:43:38;;;;;;;1.63;0.60;;;16.70;99.90;;;;;;5034199;28;20453;-55
2021/05/18 12:46:08;;;;;;;0.90;0.60;;;16.90;99.90;;;;;;5034954;28;20494;-54
2021/05/18 12:48:37;;;;;;;0.60;0.50;;;17.00;99.90;;;;;;5034567;28;20894;-55
2021/05/18 12:51:16;;;;;;;0.60;0.60;;;16.70;99.90;;;;;;5034880;28;20599;-55
2021/05/18 12:53:43;;;;;;;0.70;0.60;;;16.40;99.90;;;;;;5033832;28;20460;-54
2021/05/18 12:56:13;;;;;;;0.70;0.60;;;16.30;99.90;;;;;;5035280;28;21173;-55
2021/05/18 12:58:39;;;;;;;1.53;0.60;;;16.40;99.90;;;;;;5035329;28;20487;-55
2021/05/18 13:01:10;;;;;;;0.70;0.50;;;16.30;99.90;;;;;;5035787;28;20449;-55
2021/05/18 13:03:39;;;;;;;0.83;0.50;;;16.20;99.90;;;;;;5034862;28;20839;-54
2021/05/18 13:06:06;;;;;;;0.60;0.50;;;16.40;99.90;;;;;;5033565;28;20863;-55
2021/05/18 13:08:35;;;;;;;1.97;0.60;;;16.50;99.90;;;;;;5034513;28;20475;-54
2021/05/18 13:11:15;;;;;;;0.70;0.60;;;16.20;99.90;;;;;;5034847;28;20531;-55
2021/05/18 13:13:46;;;;;;;0.90;0.60;;;15.90;99.90;;;;;;5035152;28;20463;-55
2021/05/18 13:16:16;;;;;;;1.70;0.60;;;16.20;99.90;;;;;;5034717;28;20480;-55
2021/05/18 13:18:55;;;;;;;1.03;0.60;;;16.60;99.90;;;;;;5036073;28;20479;-55
2021/05/18 13:21:23;;;;;;;0.60;0.50;;;16.50;99.90;;;;;;5037408;28;20459;-55
2021/05/18 13:24:11;;;;;;;1.10;0.60;;;16.80;99.90;;;;;;5036862;28;20870;-55
2021/05/18 13:26:39;;;;;;;1.57;0.60;;;16.50;99.90;;;;;;5034966;28;20540;-54
2021/05/18 13:29:08;;;;;;;0.80;0.60;;;16.20;99.90;;;;;;5033423;28;20909;-54
2021/05/18 13:31:36;;;;;;;0.90;0.60;;;15.60;99.90;;;;;;5034368;28;20535;-54
2021/05/18 13:34:04;;;;;;;1.73;0.70;;;15.50;99.90;;;;;;5034296;28;20506;-55
2021/05/18 13:36:33;;;;;;;0.87;0.63;;;15.30;99.90;;;;;;5033626;28;20480;-55
2021/05/18 13:39:01;;;;;;;0.60;0.60;;;15.00;99.90;;;;;;5033102;28;20975;-54
2021/05/18 13:41:28;;;;;;;1.50;0.70;;;14.70;99.90;;;;;;5033787;28;20475;-55
2021/05/18 13:43:54;;;;;;;1.80;0.90;;;14.60;99.90;;;;;;5032859;28;20455;-55
2021/05/18 13:46:21;;;;;;;1.67;0.80;;;14.20;99.90;;;;;;5033903;28;20453;-55
2021/05/18 13:48:48;;;;;;;1.30;0.90;;;14.00;99.90;;;;;;5032719;28;20472;-55
2021/05/18 13:51:16;;;;;;;2.10;1.20;;;13.60;99.90;;;;;;5032374;28;20456;-55
2021/05/18 13:53:44;;;;;;;2.80;1.33;;;12.30;99.90;;;;;;5033094;28;20484;-55
2021/05/18 13:56:10;;;;;;;1.90;0.60;;;11.50;99.90;;;;;;5033314;28;21007;-54
2021/05/18 13:58:37;;;;;;;0.73;0.70;;;10.70;99.90;;;;;;5033342;28;20476;-55
2021/05/18 14:01:04;;;;;;;1.73;0.60;;;10.60;99.90;;;;;;5032819;28;21033;-55
2021/05/18 14:03:31;;;;;;;0.60;0.50;;;10.80;99.90;;;;;;5033126;28;20449;-54
2021/05/18 14:05:57;;;;;;;0.70;0.60;;;11.20;99.90;;;;;;5030710;28;20452;-55
2021/05/18 14:08:26;;;;;;;4.00;0.60;;;11.50;99.90;;;;;;5032955;28;20990;-55
2021/05/18 14:11:01;;;;;;;0.63;0.50;;;11.80;99.90;;;;;;5032791;28;20449;-55
2021/05/18 14:13:29;;;;;;;1.33;0.70;;;12.00;99.90;;;;;;5033747;28;20451;-55
2021/05/18 14:15:56;;;;;;;0.80;0.70;;;12.30;99.90;;;;;;5033128;28;20491;-54
2021/05/18 14:18:23;;;;;;;0.80;0.80;;;12.40;99.90;;;;;;5033298;28;21120;-55
2021/05/18 14:20:50;;;;;;;1.53;0.90;;;12.50;99.90;;;;;;5031628;28;20448;-55
2021/05/18 14:23:21;;;;;;;1.47;0.80;;;12.60;99.90;;;;;;5033339;28;20453;-55
2021/05/18 14:25:48;;;;;;;0.90;0.70;;;12.60;99.90;;;;;;5032750;28;20480;-55
2021/05/18 14:28:15;;;;;;;2.77;0.70;;;12.60;99.90;;;;;;5033217;28;20587;-55
2021/05/18 14:30:41;;;;;;;0.70;0.60;;;12.70;99.90;;;;;;5033063;28;20461;-55
2021/05/18 14:33:08;;;;;;;0.90;0.70;;;12.70;99.90;;;;;;5032671;28;20452;-55
2021/05/18 14:35:34;;;;;;;3.90;0.90;;;12.90;99.90;;;;;;5032365;28;20480;-55
2021/05/18 14:38:05;;;;;;;1.10;0.70;;;13.00;99.90;;;;;;5032739;28;20476;-54
2021/05/18 14:40:56;;;;;;;1.00;0.80;;;13.10;99.90;;;;;;5031843;28;20453;-55
2021/05/18 14:46:15;;;;;;;1.47;0.90;;;13.70;99.90;;;;;;5032239;28;20478;-55
2021/05/18 14:54:37;;;;;;;0.80;0.70;;;13.70;99.90;;;;;;4996854;28;20444;-54
2021/05/18 14:57:04;;;;;;;2.40;0.70;;;13.40;99.90;;;;;;5032105;28;20480;-54
2021/05/18 14:59:32;;;;;;;0.70;0.60;;;13.30;99.90;;;;;;5032710;28;20456;-55
2021/05/18 15:01:58;;;;;;;0.77;0.60;;;13.40;99.90;;;;;;5032285;28;21007;-55
2021/05/18 15:04:25;;;;;;;0.73;0.57;;;13.40;99.90;;;;;;5032576;28;20877;-55
2021/05/18 15:06:51;;;;;;;0.60;0.50;;;13.50;99.90;;;;;;5031978;28;20449;-55
2021/05/18 15:09:18;;;;;;;0.70;0.50;;;13.40;99.90;;;;;;5032173;28;20973;-55
2021/05/18 15:11:44;;;;;;;0.70;0.60;;;13.40;99.90;;;;;;5034192;28;20869;-55
2021/05/18 15:14:11;;;;;;;0.70;0.70;;;13.50;99.90;;;;;;5031985;28;20449;-55
2021/05/18 15:16:38;;;;;;;0.80;0.60;;;13.50;99.90;;;;;;5032144;28;20481;-55
2021/05/18 15:19:08;;;;;;;1.13;0.50;;;13.60;99.90;;;;;;5031338;28;20767;-55
2021/05/18 15:21:34;;;;;;;2.50;0.60;;;13.70;99.90;;;;;;5032262;28;20875;-55
2021/05/18 15:24:01;;;;;;;0.70;0.60;;;14.10;99.90;;;;;;5031393;28;20445;-55
2021/05/18 15:26:28;;;;;;;0.67;0.60;;;14.20;99.90;;;;;;5032226;28;20449;-55
2021/05/18 15:28:54;;;;;;;0.60;0.60;;;14.50;99.90;;;;;;5031726;28;20476;-55
2021/05/18 15:31:21;;;;;;;0.90;0.60;;;14.70;99.90;;;;;;5031812;28;20455;-55
2021/05/18 15:33:48;;;;;;;2.13;0.80;;;14.90;99.90;;;;;;5031687;28;20459;-56
2021/05/18 15:36:16;;;;;;;0.90;0.60;;;15.10;99.90;;;;;;5031545;28;20527;-55
2021/05/18 15:38:44;;;;;;;0.77;0.50;;;15.10;99.90;;;;;;5031299;28;20476;-54
2021/05/18 15:41:12;;;;;;;0.80;0.67;;;15.10;99.90;;;;;;5031398;28;20837;-55
2021/05/18 15:43:38;;;;;;;0.93;0.67;;;15.10;99.90;;;;;;5031767;28;20960;-55
2021/05/18 15:46:05;;;;;;;1.20;0.60;;;15.10;99.90;;;;;;5031419;28;20957;-55
2021/05/18 15:48:32;;;;;;;3.00;0.77;;;15.10;99.90;;;;;;5031695;28;20495;-55
2021/05/18 15:51:01;;;;;;;0.77;0.60;;;15.10;99.90;;;;;;5030428;28;20453;-55
2021/05/18 15:53:27;;;;;;;0.90;0.80;;;15.20;99.90;;;;;;5031138;28;20464;-55
2021/05/18 15:55:54;;;;;;;0.77;0.77;;;15.30;99.90;;;;;;5031322;28;20476;-56
2021/05/18 15:58:21;;;;;;;2.93;0.70;;;15.30;99.90;;;;;;5031399;28;20897;-56
2021/05/18 16:00:48;;;;;;;0.80;0.80;;;15.30;99.90;;;;;;5030813;28;20457;-56
2021/05/18 16:03:15;;;;;;;1.47;0.70;;;15.10;99.90;;;;;;5031778;28;20457;-57
2021/05/18 16:05:42;;;;;;;0.97;0.60;;;15.00;99.90;;;;;;5031055;28;20483;-56
2021/05/18 16:08:58;;;;;;;1.17;0.80;;;14.90;99.90;;;;;;5031641;28;20522;-56
2021/05/18 16:10:58;;;;;;;0.70;0.70;;;14.80;99.90;;;;;;5030908;28;20951;-56
2021/05/18 16:13:25;;;;;;;0.77;0.60;;;14.70;99.90;;;;;;5030619;28;20973;-56
2021/05/18 16:15:51;;;;;;;2.00;0.80;;;14.70;99.90;;;;;;5030935;28;20537;-56
2021/05/18 16:18:18;;;;;;;1.30;0.80;;;14.60;99.90;;;;;;5031640;28;20476;-56
2021/05/18 16:20:44;;;;;;;1.47;0.80;;;14.50;99.90;;;;;;5031115;28;20448;-56
2021/05/18 16:23:12;;;;;;;1.37;0.70;;;14.50;99.90;;;;;;5030852;28;20449;-56
2021/05/18 16:25:38;;;;;;;1.10;0.80;;;14.50;99.90;;;;;;5029889;28;20459;-56
2021/05/18 16:28:05;;;;;;;2.40;0.80;;;14.50;99.90;;;;;;5030960;28;20476;-56
2021/05/18 16:30:31;;;;;;;1.60;0.73;;;14.50;99.90;;;;;;5031051;28;20456;-57
2021/05/18 16:32:58;;;;;;;0.80;0.70;;;14.60;99.90;;;;;;5031182;28;20437;-57
2021/05/18 16:35:25;;;;;;;2.40;0.90;;;14.60;99.90;;;;;;5030606;28;20783;-57
2021/05/18 16:37:51;;;;;;;1.00;0.80;;;14.80;99.90;;;;;;5031123;28;20476;-57
2021/05/18 16:40:19;;;;;;;1.67;0.80;;;14.80;99.90;;;;;;5030716;28;20456;-56
2021/05/18 16:42:46;;;;;;;2.00;0.83;;;14.80;99.90;;;;;;5031078;28;20448;-57
2021/05/18 16:45:13;;;;;;;1.10;1.00;;;14.70;99.90;;;;;;5030527;28;20480;-57
2021/05/18 16:47:39;;;;;;;2.40;1.10;;;14.60;99.90;;;;;;5030715;28;20847;-57
2021/05/18 16:50:08;;;;;;;3.70;0.80;;;14.60;99.90;;;;;;5030532;28;20449;-57
2021/05/18 16:52:35;;;;;;;1.40;1.30;;;14.60;99.90;;;;;;5031212;28;20651;-56
2021/05/18 16:55:02;;;;;;;1.33;1.10;;;14.60;99.90;;;;;;5030350;28;20449;-57
2021/05/18 16:57:29;;;;;;;1.57;1.10;;;14.40;99.90;;;;;;5030909;28;20876;-57
2021/05/18 16:59:55;;;;;;;1.40;1.00;;;14.40;99.90;;;;;;5030453;28;20457;-56
2021/05/18 17:02:22;;;;;;;2.13;1.60;;;14.40;99.90;;;;;;5030382;28;20449;-56
2021/05/18 17:04:49;;;;;;;1.88;1.20;;;14.50;99.90;;;;;;5034275;28;20948;-56
2021/05/18 17:07:16;;;;;;;1.20;1.10;;;14.10;99.90;;;;;;5034229;28;20267;-57
2021/05/18 17:09:43;;;;;;;1.87;1.10;;;14.10;99.90;;;;;;5033787;28;20836;-57
2021/05/18 17:12:10;;;;;;;2.83;1.10;;;14.10;99.90;;;;;;5033757;28;20874;-56
2021/05/18 17:14:37;;;;;;;1.10;1.00;;;14.30;99.90;;;;;;5034299;28;20460;-56
2021/05/18 17:17:04;;;;;;;3.80;0.97;;;14.40;99.90;;;;;;5035038;28;20492;-56